Terminal Aerodrome Forecast
Issued by NWS Cleveland, OH

Home | Current Version | Previous Version | Graphics & Text | Print | Product List | Glossary On
Versions: 1 2 3 4 5 6 7 8 9 10 11 12 13 14 15 16 17 18 19 20 21 22 23 24 25 26 27 28 29 30 31 32 33 34 35 36
000
FTUS41 KCLE 220300 AAB
TAFCLE
TAF AMD
KCLE 220303Z 2203/2306 20004KT P6SM VCSH SCT040 BKN100
     FM220700 21003KT P6SM BKN035
      TEMPO 2207/2210 4SM -SHRA
     FM221400 21005KT P6SM VCTS BKN030CB
     FM221800 35006KT P6SM BKN035
     FM230000 03005KT P6SM SCT035 BKN120=

USA.gov is the U.S. government's official web portal to all federal, state and local government web resources and services.